Time;durP1;ratioP1;P1;durP2;ratioP2;P2;SDS_P1;SDS_P2;PMS_P1;PMS_P2;Temp;Humidity;BMP_temperature;BMP_pressure;BME280_temperature;BME280_humidity;BME280_pressure;Samples;Min_cycle;Max_cycle;Signal;HPM_P1;HPM_P2
2023/03/14 00:00:34;;;;;;;17.05;2.80;;;10.80;99.90;;;;;;5032363;28;20040;-75
2023/03/14 00:03:00;;;;;;;20.13;3.63;;;10.80;99.90;;;;;;5029526;28;20139;-73
2023/03/14 00:05:25;;;;;;;18.38;2.92;;;10.80;99.90;;;;;;5023450;28;20477;-74
2023/03/14 00:07:51;;;;;;;19.33;3.17;;;10.80;99.90;;;;;;5031979;28;20036;-73
2023/03/14 00:10:17;;;;;;;22.75;3.95;;;10.70;99.90;;;;;;5031802;28;20034;-73
2023/03/14 00:12:43;;;;;;;22.05;3.60;;;10.70;99.90;;;;;;5034617;28;20363;-75
2023/03/14 00:15:13;;;;;;;22.08;3.40;;;10.70;99.90;;;;;;5036420;28;20037;-72
2023/03/14 00:17:39;;;;;;;14.57;2.97;;;10.60;99.90;;;;;;5036037;28;20033;-73
2023/03/14 00:20:15;;;;;;;18.42;2.90;;;10.60;99.90;;;;;;5035763;28;20021;-74
2023/03/14 00:23:02;;;;;;;18.38;3.88;;;10.50;99.90;;;;;;5017263;28;20473;-75
2023/03/14 00:25:33;;;;;;;15.40;3.00;;;10.50;99.90;;;;;;5029124;28;20025;-77
2023/03/14 00:28:02;;;;;;;19.17;2.90;;;10.50;99.90;;;;;;5016607;28;20488;-74
2023/03/14 00:30:28;;;;;;;17.90;3.22;;;10.40;99.90;;;;;;5034242;28;20520;-75
2023/03/14 00:32:54;;;;;;;16.50;2.97;;;10.40;99.90;;;;;;5035362;28;20024;-75
2023/03/14 00:35:19;;;;;;;20.30;3.60;;;10.40;99.90;;;;;;5017543;28;20397;-75
2023/03/14 00:37:45;;;;;;;19.52;3.35;;;10.50;99.90;;;;;;5035516;28;20036;-74
2023/03/14 00:40:11;;;;;;;16.95;3.75;;;10.50;99.90;;;;;;5034969;28;20037;-74
2023/03/14 00:42:36;;;;;;;14.63;3.45;;;10.50;99.90;;;;;;5035033;28;20079;-75
2023/03/14 00:45:03;;;;;;;10.15;2.15;;;10.60;99.90;;;;;;5034205;28;20036;-73
2023/03/14 00:47:29;;;;;;;17.85;3.03;;;10.60;99.90;;;;;;5034293;28;20116;-74
2023/03/14 00:49:54;;;;;;;17.23;2.67;;;10.60;99.90;;;;;;5015889;28;20108;-75
2023/03/14 00:52:20;;;;;;;17.73;3.30;;;10.60;99.90;;;;;;5034178;28;20057;-76
2023/03/14 00:54:45;;;;;;;16.15;2.78;;;10.60;99.90;;;;;;5034271;28;20056;-73
2023/03/14 00:57:11;;;;;;;18.80;3.97;;;10.60;99.90;;;;;;5034585;28;20040;-74
2023/03/14 00:59:36;;;;;;;19.95;3.47;;;10.60;99.90;;;;;;5034501;28;20029;-74
2023/03/14 01:02:02;;;;;;;22.95;3.83;;;10.50;99.90;;;;;;5034776;28;20061;-76
2023/03/14 01:04:30;;;;;;;15.80;3.53;;;10.50;99.90;;;;;;5034381;28;20079;-74
2023/03/14 01:06:55;;;;;;;20.92;4.10;;;10.50;99.90;;;;;;5035115;28;20044;-74
2023/03/14 01:09:21;;;;;;;19.05;3.80;;;10.50;99.90;;;;;;5034740;28;20408;-73
2023/03/14 01:11:46;;;;;;;27.70;3.88;;;10.50;99.90;;;;;;5034698;28;20026;-75
2023/03/14 01:14:12;;;;;;;23.00;4.85;;;10.50;99.90;;;;;;5034841;28;20458;-76
2023/03/14 01:16:38;;;;;;;21.23;3.58;;;10.40;99.90;;;;;;5034043;28;20044;-75
2023/03/14 01:19:04;;;;;;;26.50;4.07;;;10.40;99.90;;;;;;5034764;28;20029;-74
2023/03/14 01:21:32;;;;;;;23.55;3.95;;;10.40;99.90;;;;;;5034399;28;20118;-75
2023/03/14 01:23:59;;;;;;;20.13;4.05;;;10.40;99.90;;;;;;5033487;28;20032;-75
2023/03/14 01:26:28;;;;;;;22.13;3.55;;;10.40;99.90;;;;;;5034788;28;20037;-76
2023/03/14 01:28:55;;;;;;;25.20;4.13;;;10.30;99.90;;;;;;5034611;28;20029;-73
2023/03/14 01:31:20;;;;;;;17.52;3.80;;;10.20;99.90;;;;;;5034809;28;20042;-74
2023/03/14 01:33:46;;;;;;;26.63;5.10;;;10.20;99.90;;;;;;5034630;28;20041;-75
2023/03/14 01:36:12;;;;;;;21.38;3.35;;;10.20;99.90;;;;;;5034368;28;20389;-74
2023/03/14 01:38:39;;;;;;;24.70;4.18;;;10.20;99.90;;;;;;5034351;28;20105;-76
2023/03/14 01:41:06;;;;;;;24.63;3.90;;;10.20;99.90;;;;;;5033413;28;20119;-75
2023/03/14 01:43:32;;;;;;;25.65;4.22;;;10.20;99.90;;;;;;5034296;28;20040;-74
2023/03/14 01:46:06;;;;;;;20.30;4.20;;;10.20;99.90;;;;;;5034138;28;20334;-75
2023/03/14 01:48:38;;;;;;;25.95;3.25;;;10.20;99.90;;;;;;5016646;28;20048;-73
2023/03/14 01:51:08;;;;;;;25.52;4.25;;;10.20;99.90;;;;;;5034043;28;20461;-74
2023/03/14 01:53:35;;;;;;;33.40;4.20;;;10.10;99.90;;;;;;5033836;28;20022;-74
2023/03/14 01:56:01;;;;;;;23.67;3.92;;;10.10;99.90;;;;;;5033980;28;20100;-76
2023/03/14 01:58:30;;;;;;;18.65;3.38;;;10.10;99.90;;;;;;5034221;28;20111;-73
2023/03/14 02:00:58;;;;;;;24.58;4.70;;;10.10;99.90;;;;;;5033671;28;20040;-74
2023/03/14 02:03:25;;;;;;;29.70;4.00;;;10.10;99.90;;;;;;5033996;28;20021;-75
2023/03/14 02:05:53;;;;;;;14.75;2.67;;;10.10;99.90;;;;;;5032347;28;20048;-75
2023/03/14 02:08:21;;;;;;;23.58;3.30;;;10.10;99.90;;;;;;5033485;28;20064;-74
2023/03/14 02:10:49;;;;;;;25.08;4.10;;;10.20;99.90;;;;;;5034050;28;20049;-74
2023/03/14 02:13:18;;;;;;;23.48;4.43;;;10.20;99.90;;;;;;5033746;28;20036;-75
2023/03/14 02:15:44;;;;;;;19.58;4.50;;;10.30;99.90;;;;;;5033908;28;20068;-75
2023/03/14 02:18:10;;;;;;;18.23;3.22;;;10.30;99.90;;;;;;5033549;28;20429;-73
2023/03/14 02:21:01;;;;;;;20.38;3.20;;;10.30;99.90;;;;;;5033133;28;20465;-75
2023/03/14 02:24:07;;;;;;;26.67;4.15;;;10.30;99.90;;;;;;5033485;28;20045;-76
2023/03/14 02:26:41;;;;;;;15.68;3.50;;;10.30;99.90;;;;;;4995638;28;20115;-74
2023/03/14 02:29:07;;;;;;;22.98;3.97;;;10.30;99.90;;;;;;5032898;28;20696;-74
2023/03/14 02:31:33;;;;;;;19.02;2.90;;;10.30;99.90;;;;;;5033451;28;20028;-76
2023/03/14 02:34:00;;;;;;;21.17;3.88;;;10.30;99.90;;;;;;5033513;28;20029;-76
2023/03/14 02:36:27;;;;;;;19.95;3.00;;;10.40;99.90;;;;;;5033250;28;20049;-75
2023/03/14 02:39:14;;;;;;;18.58;3.28;;;10.40;99.90;;;;;;5033397;28;20025;-76
2023/03/14 02:41:39;;;;;;;21.42;3.90;;;10.30;99.90;;;;;;5033023;28;20093;-74
2023/03/14 02:44:05;;;;;;;22.63;4.20;;;10.40;99.90;;;;;;5033308;28;20029;-76
2023/03/14 02:46:31;;;;;;;21.52;3.55;;;10.30;99.90;;;;;;5033255;28;20033;-76
2023/03/14 02:49:02;;;;;;;22.95;3.85;;;10.30;99.90;;;;;;5033180;28;20035;-76
2023/03/14 02:51:29;;;;;;;15.80;2.63;;;10.30;99.90;;;;;;5032755;28;20453;-74
2023/03/14 02:53:55;;;;;;;9.48;2.58;;;10.40;99.90;;;;;;5031471;28;20440;-74
2023/03/14 02:56:20;;;;;;;19.38;4.50;;;10.40;99.90;;;;;;5032684;28;20118;-77
2023/03/14 02:58:46;;;;;;;23.00;3.25;;;10.40;99.90;;;;;;5032643;28;20084;-76
2023/03/14 03:01:11;;;;;;;16.27;2.72;;;10.50;99.90;;;;;;5033201;28;20026;-76
2023/03/14 03:03:37;;;;;;;20.83;3.10;;;10.40;99.90;;;;;;5032638;28;20022;-75
2023/03/14 03:06:02;;;;;;;21.05;3.33;;;10.40;99.90;;;;;;5032967;28;20029;-75
2023/03/14 03:08:29;;;;;;;17.80;2.78;;;10.50;99.90;;;;;;5032577;28;20025;-75
2023/03/14 03:10:56;;;;;;;17.38;3.15;;;10.50;99.90;;;;;;5032624;28;20035;-76
2023/03/14 03:13:21;;;;;;;20.73;2.97;;;10.50;99.90;;;;;;5032697;28;20034;-74
2023/03/14 03:15:47;;;;;;;17.60;2.72;;;10.60;99.90;;;;;;5032779;28;20064;-76
2023/03/14 03:18:12;;;;;;;21.17;3.53;;;10.70;99.90;;;;;;5032030;28;20029;-75
2023/03/14 03:20:38;;;;;;;16.27;2.83;;;10.70;99.90;;;;;;5032008;28;20033;-77
2023/03/14 03:23:04;;;;;;;18.63;3.35;;;10.70;99.90;;;;;;5032125;28;20064;-75
2023/03/14 03:25:30;;;;;;;16.55;3.60;;;10.70;99.90;;;;;;5032641;28;20029;-74
2023/03/14 03:27:56;;;;;;;16.08;2.85;;;10.70;99.90;;;;;;5032550;28;20087;-74
2023/03/14 03:30:22;;;;;;;13.18;3.50;;;10.80;99.90;;;;;;5032338;28;20472;-76
2023/03/14 03:32:47;;;;;;;14.40;3.45;;;10.80;99.90;;;;;;5032500;28;20025;-76
2023/03/14 03:35:13;;;;;;;21.08;4.95;;;10.80;99.90;;;;;;5031674;28;20037;-77
2023/03/14 03:37:39;;;;;;;19.75;4.57;;;10.80;99.90;;;;;;5031903;28;20029;-75
2023/03/14 03:40:06;;;;;;;14.98;3.60;;;10.90;99.90;;;;;;5014528;28;20037;-74
2023/03/14 03:42:33;;;;;;;18.17;5.13;;;10.90;99.90;;;;;;5032418;28;20033;-76
2023/03/14 03:45:00;;;;;;;16.35;4.75;;;10.90;99.90;;;;;;5032385;28;20037;-76
2023/03/14 03:47:25;;;;;;;25.13;4.28;;;10.90;99.90;;;;;;5031451;28;20021;-75
2023/03/14 03:49:51;;;;;;;21.63;3.75;;;10.90;99.90;;;;;;5014484;28;20042;-76
2023/03/14 03:52:17;;;;;;;19.95;5.07;;;10.90;99.90;;;;;;5031388;28;20034;-76
2023/03/14 03:54:43;;;;;;;19.63;4.93;;;10.90;99.90;;;;;;5032134;28;20071;-74
2023/03/14 03:57:08;;;;;;;19.70;4.63;;;10.90;99.90;;;;;;5032119;28;20045;-73
2023/03/14 03:59:34;;;;;;;18.52;5.05;;;10.90;99.90;;;;;;5032052;28;20108;-75
2023/03/14 04:01:59;;;;;;;22.10;4.28;;;10.80;99.90;;;;;;5031901;28;20022;-75
2023/03/14 04:04:25;;;;;;;18.75;4.55;;;10.70;99.90;;;;;;5030717;28;20030;-76
2023/03/14 04:06:51;;;;;;;20.15;5.18;;;10.60;99.90;;;;;;5031894;28;20033;-77
2023/03/14 04:09:16;;;;;;;17.75;4.45;;;10.40;99.90;;;;;;5031975;28;20022;-77
2023/03/14 04:11:42;;;;;;;18.00;5.00;;;10.30;99.90;;;;;;5031464;28;20029;-77
2023/03/14 04:14:08;;;;;;;16.83;5.22;;;10.20;99.90;;;;;;5032460;28;20458;-75
2023/03/14 04:16:34;;;;;;;19.35;4.00;;;10.10;99.90;;;;;;5029838;28;20133;-74
2023/03/14 04:19:00;;;;;;;22.33;4.68;;;10.00;99.90;;;;;;5032261;28;20061;-75
2023/03/14 04:21:26;;;;;;;22.77;5.57;;;10.00;99.90;;;;;;5031417;28;20500;-76
2023/03/14 04:23:52;;;;;;;21.08;5.80;;;10.00;99.90;;;;;;5032244;28;20065;-75
2023/03/14 04:26:17;;;;;;;24.13;6.13;;;9.90;99.90;;;;;;5031572;28;20120;-75
2023/03/14 04:28:43;;;;;;;21.83;5.00;;;9.90;99.90;;;;;;5031983;28;20104;-76
2023/03/14 04:31:18;;;;;;;22.63;6.88;;;9.80;99.90;;;;;;5031288;28;20129;-77
2023/03/14 04:33:44;;;;;;;17.00;5.68;;;9.80;99.90;;;;;;5032210;28;20026;-77
2023/03/14 04:36:09;;;;;;;23.33;5.32;;;9.80;99.90;;;;;;5031816;28;20057;-78
2023/03/14 04:38:35;;;;;;;19.42;4.53;;;9.70;99.90;;;;;;5031442;28;20071;-76
2023/03/14 04:41:01;;;;;;;18.30;4.38;;;9.70;99.90;;;;;;5031117;28;20388;-75
2023/03/14 04:43:27;;;;;;;17.00;4.53;;;9.60;99.90;;;;;;5031257;28;20040;-76
2023/03/14 04:45:57;;;;;;;20.30;5.07;;;9.60;99.90;;;;;;5031657;28;20037;-78
2023/03/14 04:48:24;;;;;;;20.13;5.20;;;9.60;99.90;;;;;;5031426;28;20061;-76
2023/03/14 04:50:50;;;;;;;25.38;7.88;;;9.60;99.90;;;;;;5031534;28;20741;-78
2023/03/14 04:53:17;;;;;;;16.88;4.28;;;9.50;99.90;;;;;;5031386;28;20026;-76
2023/03/14 04:55:54;;;;;;;24.17;8.02;;;9.50;99.90;;;;;;5013676;28;20475;-75
2023/03/14 04:58:21;;;;;;;23.85;7.05;;;9.60;99.90;;;;;;5015452;28;20453;-77
2023/03/14 05:00:47;;;;;;;21.98;6.32;;;9.50;99.90;;;;;;5017474;28;20381;-78
2023/03/14 05:03:15;;;;;;;26.95;5.68;;;9.50;99.90;;;;;;5035080;28;20029;-77
2023/03/14 05:05:40;;;;;;;20.33;5.18;;;9.50;99.90;;;;;;5035058;28;20548;-76
2023/03/14 05:08:06;;;;;;;28.17;4.80;;;9.50;99.90;;;;;;5035214;28;20064;-75
2023/03/14 05:10:32;;;;;;;20.42;4.85;;;9.40;99.90;;;;;;5035624;28;20088;-77
2023/03/14 05:12:57;;;;;;;26.58;7.20;;;9.40;99.90;;;;;;5035000;28;20025;-75
2023/03/14 05:15:23;;;;;;;27.17;8.07;;;9.40;99.90;;;;;;5034821;28;20061;-77
2023/03/14 05:17:49;;;;;;;26.45;6.43;;;9.40;99.90;;;;;;5034461;28;20488;-78
2023/03/14 05:20:15;;;;;;;15.95;4.10;;;9.40;99.90;;;;;;5017041;28;20104;-76
2023/03/14 05:22:41;;;;;;;17.27;3.85;;;9.30;99.90;;;;;;5035015;28;20021;-75
2023/03/14 05:25:07;;;;;;;15.57;2.75;;;9.30;99.90;;;;;;5034982;28;20025;-75
2023/03/14 05:27:33;;;;;;;15.68;3.85;;;9.20;99.90;;;;;;5034640;28;20075;-76
2023/03/14 05:29:59;;;;;;;15.57;3.75;;;9.10;99.90;;;;;;5034744;28;20041;-77
2023/03/14 05:32:24;;;;;;;16.25;2.97;;;9.10;99.90;;;;;;5034504;28;20429;-76
2023/03/14 05:34:52;;;;;;;18.42;3.13;;;9.10;99.90;;;;;;5034755;28;20037;-76
2023/03/14 05:37:18;;;;;;;16.35;2.50;;;9.00;99.90;;;;;;5034267;28;20041;-77
2023/03/14 05:39:43;;;;;;;19.25;5.00;;;9.00;99.90;;;;;;5033955;28;20473;-75
2023/03/14 05:42:09;;;;;;;20.27;2.97;;;9.00;99.90;;;;;;5034429;28;20061;-75
2023/03/14 05:44:34;;;;;;;27.98;5.03;;;8.90;99.90;;;;;;5034408;28;20025;-76
2023/03/14 05:47:00;;;;;;;20.00;3.25;;;8.90;99.90;;;;;;5034210;28;20057;-75
2023/03/14 05:49:25;;;;;;;16.58;4.28;;;9.00;99.90;;;;;;5034342;28;20029;-75
2023/03/14 05:51:51;;;;;;;18.50;4.80;;;8.90;99.90;;;;;;5034092;28;20144;-78
2023/03/14 05:54:17;;;;;;;18.90;4.30;;;8.90;99.90;;;;;;5034374;28;20032;-76
2023/03/14 05:56:42;;;;;;;17.08;4.22;;;8.90;99.90;;;;;;5034475;28;20073;-76
2023/03/14 05:59:08;;;;;;;18.77;3.28;;;8.80;99.90;;;;;;5034475;28;20418;-77
2023/03/14 06:01:34;;;;;;;15.02;2.60;;;8.80;99.90;;;;;;5033291;28;20034;-78
2023/03/14 06:04:00;;;;;;;11.75;3.22;;;8.80;99.90;;;;;;5034045;28;20030;-77
2023/03/14 06:06:25;;;;;;;13.80;2.33;;;8.70;99.90;;;;;;5015116;28;20036;-75
2023/03/14 06:08:51;;;;;;;17.63;1.48;;;8.70;99.90;;;;;;5034066;28;20117;-75
2023/03/14 06:11:17;;;;;;;11.75;2.50;;;8.60;99.90;;;;;;5033449;28;20026;-73
2023/03/14 06:13:42;;;;;;;7.32;1.60;;;8.60;99.90;;;;;;5033817;28;20032;-74
2023/03/14 06:16:08;;;;;;;13.50;3.13;;;8.50;99.90;;;;;;5015959;28;20045;-74
2023/03/14 06:18:34;;;;;;;14.60;1.80;;;8.50;99.90;;;;;;5033792;28;20036;-73
2023/03/14 06:20:59;;;;;;;9.13;1.63;;;8.40;99.90;;;;;;5033960;28;20108;-73
2023/03/14 06:23:25;;;;;;;13.00;1.98;;;8.40;99.90;;;;;;5033991;28;20025;-75
2023/03/14 06:25:51;;;;;;;12.85;2.45;;;8.40;99.90;;;;;;5033983;28;20037;-75
2023/03/14 06:28:17;;;;;;;14.52;2.03;;;8.30;99.90;;;;;;5032861;28;20507;-74
2023/03/14 06:30:42;;;;;;;11.27;1.88;;;8.30;99.90;;;;;;5032614;28;20060;-75
2023/03/14 06:33:08;;;;;;;18.00;3.85;;;8.20;99.90;;;;;;5033120;28;20030;-73
2023/03/14 06:35:33;;;;;;;11.32;2.40;;;8.20;99.90;;;;;;5032959;28;20069;-75
2023/03/14 06:37:59;;;;;;;15.52;2.03;;;8.20;99.90;;;;;;5033544;28;20473;-74
2023/03/14 06:40:25;;;;;;;11.93;3.03;;;8.20;99.90;;;;;;5033555;28;20103;-75
2023/03/14 06:42:50;;;;;;;13.18;3.30;;;8.10;99.90;;;;;;5033460;28;20030;-72
2023/03/14 06:45:16;;;;;;;16.73;3.85;;;8.10;99.90;;;;;;5033249;28;20026;-71
2023/03/14 06:47:42;;;;;;;9.07;2.67;;;8.10;99.90;;;;;;5033143;28;20026;-72
2023/03/14 06:50:09;;;;;;;17.85;3.40;;;8.10;99.90;;;;;;5032100;28;20377;-73
2023/03/14 06:52:35;;;;;;;13.57;2.42;;;8.10;99.90;;;;;;5013717;28;20121;-73
2023/03/14 06:55:01;;;;;;;11.52;3.42;;;8.10;99.90;;;;;;5027109;28;20104;-71
2023/03/14 06:57:29;;;;;;;14.10;2.35;;;8.10;99.90;;;;;;5032620;28;20041;-73
2023/03/14 06:59:56;;;;;;;19.73;2.85;;;8.10;99.90;;;;;;5031909;28;20029;-74
2023/03/14 07:02:23;;;;;;;15.35;3.92;;;8.00;99.90;;;;;;5032951;28;20025;-74
2023/03/14 07:04:48;;;;;;;23.38;3.83;;;7.90;99.90;;;;;;5032806;28;20017;-72
2023/03/14 07:07:14;;;;;;;15.55;2.50;;;7.80;99.90;;;;;;5033071;28;20164;-72
2023/03/14 07:09:39;;;;;;;16.65;2.85;;;7.70;99.90;;;;;;5031680;28;20163;-73
2023/03/14 07:12:05;;;;;;;16.27;3.45;;;7.60;99.90;;;;;;5033136;28;20033;-72
2023/03/14 07:14:31;;;;;;;20.33;2.53;;;7.50;99.90;;;;;;5032848;28;20025;-73
2023/03/14 07:16:56;;;;;;;11.75;3.33;;;7.40;99.90;;;;;;5032521;28;20136;-71
2023/03/14 07:19:22;;;;;;;5.80;1.48;;;7.30;99.90;;;;;;5032222;28;20033;-71
2023/03/14 07:21:48;;;;;;;13.63;1.90;;;7.20;99.90;;;;;;5031806;28;20028;-72
2023/03/14 07:24:13;;;;;;;11.90;1.83;;;7.10;99.90;;;;;;5032866;28;20040;-73
2023/03/14 07:26:39;;;;;;;9.15;1.30;;;7.00;99.90;;;;;;5032260;28;20030;-73
2023/03/14 07:29:06;;;;;;;7.30;1.13;;;7.00;99.90;;;;;;5032106;28;20188;-72
2023/03/14 07:31:31;;;;;;;12.05;1.10;;;7.00;99.90;;;;;;5032553;28;20040;-73
2023/03/14 07:33:57;;;;;;;13.05;2.35;;;7.00;99.90;;;;;;5032435;28;20108;-72
2023/03/14 07:36:23;;;;;;;17.83;3.15;;;7.00;99.90;;;;;;5031733;28;20080;-74
2023/03/14 07:38:48;;;;;;;8.07;1.20;;;6.90;99.90;;;;;;5032415;28;20079;-72
2023/03/14 07:41:14;;;;;;;14.23;2.58;;;6.90;99.90;;;;;;5032543;28;20108;-73
2023/03/14 07:43:40;;;;;;;7.32;2.08;;;6.90;99.90;;;;;;5032234;28;20030;-73
2023/03/14 07:46:06;;;;;;;10.73;2.05;;;6.90;99.90;;;;;;5018797;28;20092;-74
2023/03/14 07:48:31;;;;;;;6.15;1.95;;;6.90;99.90;;;;;;5012536;28;20512;-74
2023/03/14 07:50:57;;;;;;;9.70;1.70;;;6.90;99.90;;;;;;4994871;28;20058;-73
2023/03/14 07:53:23;;;;;;;11.25;2.20;;;7.00;99.90;;;;;;5012347;28;20420;-73
2023/03/14 07:55:51;;;;;;;7.80;1.77;;;7.00;99.90;;;;;;5011938;28;20054;-73
2023/03/14 07:58:17;;;;;;;10.98;2.25;;;7.10;99.90;;;;;;5012644;28;20117;-72
2023/03/14 08:00:43;;;;;;;7.75;1.25;;;7.20;99.90;;;;;;5012646;28;20120;-73
2023/03/14 08:03:08;;;;;;;10.43;2.10;;;7.10;99.90;;;;;;5012252;28;20030;-74
2023/03/14 08:05:35;;;;;;;7.95;1.65;;;7.20;99.90;;;;;;5020895;28;20083;-74
2023/03/14 08:08:01;;;;;;;9.98;1.88;;;7.20;99.90;;;;;;5031274;28;20071;-73
2023/03/14 08:10:28;;;;;;;9.82;1.52;;;7.40;99.90;;;;;;5032026;28;20037;-74
2023/03/14 08:12:54;;;;;;;16.77;2.67;;;7.60;99.90;;;;;;5030228;28;20131;-72
2023/03/14 08:15:20;;;;;;;12.75;2.05;;;7.80;99.90;;;;;;5031922;28;20057;-74
2023/03/14 08:17:50;;;;;;;10.43;1.98;;;8.10;99.90;;;;;;5030439;28;20036;-74
2023/03/14 08:20:24;;;;;;;13.30;2.80;;;8.40;99.90;;;;;;5030114;28;20039;-73
2023/03/14 08:22:50;;;;;;;5.90;1.65;;;8.60;99.90;;;;;;5031683;28;20025;-74
2023/03/14 08:25:16;;;;;;;12.35;2.13;;;8.70;99.90;;;;;;5031677;28;20034;-74
2023/03/14 08:27:42;;;;;;;14.63;2.67;;;8.60;99.90;;;;;;5030672;28;20041;-73
2023/03/14 08:30:10;;;;;;;17.52;2.60;;;8.50;99.90;;;;;;5031632;28;20045;-73
2023/03/14 08:32:36;;;;;;;18.20;2.40;;;8.50;99.90;;;;;;5032594;28;20033;-74
2023/03/14 08:35:03;;;;;;;17.08;3.28;;;8.50;99.90;;;;;;5035105;28;20033;-74
2023/03/14 08:37:28;;;;;;;10.88;1.83;;;8.60;99.90;;;;;;5035578;28;20525;-74
2023/03/14 08:39:54;;;;;;;16.90;2.80;;;8.70;99.90;;;;;;5035709;28;20053;-73
2023/03/14 08:42:19;;;;;;;13.00;2.30;;;8.80;99.90;;;;;;5035423;28;20034;-74
2023/03/14 08:44:45;;;;;;;24.88;2.50;;;9.00;99.90;;;;;;5034965;28;20030;-73
2023/03/14 08:47:11;;;;;;;13.98;2.10;;;9.10;99.90;;;;;;5035482;28;20053;-74
2023/03/14 08:49:36;;;;;;;14.65;2.50;;;9.00;99.90;;;;;;5035616;28;20064;-74
2023/03/14 08:52:04;;;;;;;22.77;3.80;;;9.20;99.90;;;;;;5035364;28;20032;-75
2023/03/14 08:54:30;;;;;;;19.70;4.03;;;9.20;99.90;;;;;;5034952;28;20029;-73
2023/03/14 08:56:55;;;;;;;20.25;2.22;;;9.10;99.90;;;;;;5035197;28;20037;-73
2023/03/14 08:59:21;;;;;;;21.52;2.00;;;9.00;99.90;;;;;;5034888;28;20021;-74
2023/03/14 09:01:46;;;;;;;11.35;3.53;;;8.90;99.90;;;;;;5035138;28;20037;-74
2023/03/14 09:04:13;;;;;;;16.70;3.80;;;8.70;99.90;;;;;;5034776;28;20034;-73
2023/03/14 09:06:39;;;;;;;18.27;2.97;;;8.20;99.90;;;;;;5034303;28;20083;-74
2023/03/14 09:09:05;;;;;;;20.98;4.80;;;7.80;99.90;;;;;;5035148;28;20033;-74
2023/03/14 09:11:30;;;;;;;16.08;4.45;;;7.40;99.90;;;;;;5032865;28;20030;-76
2023/03/14 09:13:58;;;;;;;22.65;3.17;;;7.20;99.90;;;;;;5034417;28;20839;-73
2023/03/14 09:16:23;;;;;;;18.05;4.03;;;7.00;99.90;;;;;;5034789;28;20045;-75
2023/03/14 09:18:49;;;;;;;17.58;2.85;;;6.90;99.90;;;;;;5035120;28;20033;-74
2023/03/14 09:21:15;;;;;;;25.55;4.35;;;6.90;99.90;;;;;;5034539;28;20032;-74
2023/03/14 09:23:41;;;;;;;24.10;4.00;;;6.90;99.90;;;;;;5034628;28;20025;-74
2023/03/14 09:26:07;;;;;;;24.75;3.80;;;7.00;99.90;;;;;;5035330;28;20076;-74
2023/03/14 09:28:33;;;;;;;16.00;3.28;;;7.10;99.90;;;;;;5035077;28;20061;-74
2023/03/14 09:31:09;;;;;;;19.98;3.70;;;7.40;99.90;;;;;;5034909;28;20048;-74
2023/03/14 09:33:35;;;;;;;17.73;2.85;;;7.70;99.90;;;;;;5035268;28;20033;-72
2023/03/14 09:36:01;;;;;;;22.08;3.92;;;7.90;99.90;;;;;;5034609;28;20037;-73
2023/03/14 09:38:27;;;;;;;28.30;5.25;;;7.90;99.90;;;;;;5034671;28;20033;-76
2023/03/14 09:40:53;;;;;;;13.82;2.42;;;7.80;99.90;;;;;;5034343;28;20045;-75
2023/03/14 09:43:22;;;;;;;24.83;3.92;;;7.60;99.90;;;;;;5034603;28;20382;-75
2023/03/14 09:45:50;;;;;;;21.75;3.35;;;7.50;99.90;;;;;;5033193;28;20055;-74
2023/03/14 09:48:21;;;;;;;27.00;4.20;;;7.40;99.90;;;;;;5034250;28;20108;-73
2023/03/14 09:50:52;;;;;;;15.60;3.13;;;7.40;99.90;;;;;;5034566;28;20033;-73
2023/03/14 09:53:20;;;;;;;22.05;5.05;;;7.30;99.90;;;;;;5032739;28;20034;-75
2023/03/14 09:55:49;;;;;;;24.42;3.72;;;7.20;99.90;;;;;;5034263;28;20120;-72
2023/03/14 09:58:20;;;;;;;22.10;4.05;;;7.20;99.90;;;;;;5033979;28;20027;-72
2023/03/14 10:00:47;;;;;;;19.35;2.70;;;7.40;99.90;;;;;;5034248;28;20036;-74
2023/03/14 10:03:12;;;;;;;18.20;3.53;;;7.50;99.90;;;;;;5033622;28;20171;-73
2023/03/14 10:05:39;;;;;;;25.55;4.10;;;7.60;99.90;;;;;;5034255;28;20517;-73
2023/03/14 10:08:05;;;;;;;16.25;3.78;;;7.70;99.90;;;;;;5032942;28;20032;-73
2023/03/14 10:10:32;;;;;;;17.15;2.78;;;7.80;99.90;;;;;;5032284;28;20071;-72
2023/03/14 10:13:09;;;;;;;24.83;5.82;;;8.00;99.90;;;;;;5017803;28;20037;-72
2023/03/14 10:15:36;;;;;;;17.27;3.38;;;8.20;99.90;;;;;;5013630;28;20417;-72
2023/03/14 10:18:04;;;;;;;15.15;2.97;;;8.30;99.90;;;;;;5013524;28;20559;-73
2023/03/14 10:20:36;;;;;;;18.25;3.42;;;8.50;99.90;;;;;;5033607;28;20026;-72
2023/03/14 10:23:11;;;;;;;16.25;2.63;;;9.10;99.90;;;;;;5033869;28;20083;-72
2023/03/14 10:25:38;;;;;;;15.10;2.45;;;9.90;99.90;;;;;;5032434;28;20034;-73
2023/03/14 10:28:11;;;;;;;16.38;2.20;;;10.40;99.90;;;;;;5033345;28;20049;-74
2023/03/14 10:30:44;;;;;;;17.52;2.60;;;10.90;99.90;;;;;;5033597;28;20056;-73
2023/03/14 10:33:11;;;;;;;13.77;2.00;;;11.10;99.90;;;;;;5033516;28;20029;-72
2023/03/14 10:35:37;;;;;;;15.68;3.28;;;11.50;99.90;;;;;;5032987;28;20040;-72
2023/03/14 10:38:03;;;;;;;12.65;2.28;;;12.60;99.90;;;;;;5033477;28;20025;-72
2023/03/14 10:40:36;;;;;;;16.70;2.83;;;13.50;99.60;;;;;;5033264;28;20029;-73
2023/03/14 10:43:04;;;;;;;13.65;2.88;;;13.90;98.50;;;;;;5033467;28;20032;-71
2023/03/14 10:45:43;;;;;;;11.43;2.28;;;14.60;98.80;;;;;;5033516;28;20065;-72
2023/03/14 10:48:14;;;;;;;13.57;2.25;;;15.10;97.10;;;;;;5033255;28;20436;-73
2023/03/14 10:51:00;;;;;;;14.40;2.47;;;15.30;94.60;;;;;;5033535;28;20370;-72
2023/03/14 10:53:26;;;;;;;9.45;2.17;;;15.60;95.40;;;;;;5033054;28;20393;-74
2023/03/14 10:55:52;;;;;;;13.15;2.88;;;16.10;92.20;;;;;;5030075;28;20453;-74
2023/03/14 10:58:26;;;;;;;12.27;1.95;;;16.30;93.30;;;;;;5032583;28;20040;-74
2023/03/14 11:01:16;;;;;;;11.48;2.08;;;16.50;93.20;;;;;;5033099;28;20136;-75
2023/03/14 11:04:12;;;;;;;9.98;1.92;;;16.70;91.50;;;;;;5032021;28;20524;-72
2023/03/14 11:06:58;;;;;;;11.93;2.60;;;16.80;89.00;;;;;;5015689;28;20038;-71
2023/03/14 11:09:51;;;;;;;11.82;1.92;;;16.70;91.40;;;;;;5030880;28;20029;-73
2023/03/14 11:12:41;;;;;;;13.13;2.05;;;16.80;90.80;;;;;;5032754;28;20025;-72
2023/03/14 11:15:36;;;;;;;12.25;1.65;;;16.60;88.20;;;;;;5013042;28;20429;-72
2023/03/14 11:18:22;;;;;;;12.00;2.05;;;16.40;88.80;;;;;;5019001;28;20069;-72
2023/03/14 11:20:58;;;;;;;11.27;1.90;;;16.00;88.30;;;;;;5032895;28;20033;-71
2023/03/14 11:23:32;;;;;;;6.63;1.63;;;16.00;90.50;;;;;;5032745;28;20114;-73
2023/03/14 11:26:18;;;;;;;10.63;1.98;;;16.20;89.40;;;;;;5032834;28;20131;-72
2023/03/14 11:28:49;;;;;;;9.20;1.73;;;16.20;88.00;;;;;;5031847;28;20031;-73
2023/03/14 11:31:27;;;;;;;13.13;2.00;;;16.20;90.00;;;;;;5031711;28;20046;-72
2023/03/14 11:34:02;;;;;;;8.77;2.10;;;16.00;89.10;;;;;;5031864;28;20037;-71
2023/03/14 11:36:36;;;;;;;13.50;1.70;;;16.00;89.60;;;;;;5032004;28;20072;-72
2023/03/14 11:39:03;;;;;;;10.75;1.92;;;16.30;90.40;;;;;;5032207;28;20021;-72
2023/03/14 11:41:45;;;;;;;4.63;1.58;;;16.40;87.70;;;;;;5032589;28;20025;-72
2023/03/14 11:44:25;;;;;;;9.93;1.90;;;16.60;86.70;;;;;;5032218;28;20490;-71
2023/03/14 11:47:18;;;;;;;15.77;1.90;;;16.90;87.80;;;;;;5030759;28;20482;-72
2023/03/14 11:49:50;;;;;;;11.07;1.63;;;17.60;85.80;;;;;;5030423;28;20092;-73
2023/03/14 11:52:34;;;;;;;9.75;1.48;;;18.00;82.50;;;;;;5031298;28;20029;-72
2023/03/14 11:55:29;;;;;;;10.25;1.52;;;17.80;82.20;;;;;;5032134;28;20995;-72
2023/03/14 11:58:02;;;;;;;13.75;2.05;;;17.50;83.80;;;;;;5030851;28;20107;-73
2023/03/14 12:00:30;;;;;;;10.18;2.00;;;17.10;84.70;;;;;;5031606;28;20041;-72
2023/03/14 12:03:05;;;;;;;10.23;1.90;;;16.70;84.80;;;;;;5014697;28;20060;-72
2023/03/14 12:05:58;;;;;;;12.57;1.67;;;16.40;83.20;;;;;;5032057;28;20029;-72
2023/03/14 12:08:37;;;;;;;10.90;1.58;;;16.40;82.10;;;;;;5034424;28;20036;-73
2023/03/14 12:11:05;;;;;;;10.02;1.50;;;16.60;82.50;;;;;;5035812;28;20106;-73
2023/03/14 12:13:37;;;;;;;6.10;1.15;;;16.90;82.40;;;;;;5035991;28;20061;-73
2023/03/14 12:16:30;;;;;;;10.23;1.58;;;16.90;80.10;;;;;;5018002;28;20044;-72
2023/03/14 12:18:55;;;;;;;11.25;1.73;;;16.90;80.10;;;;;;5029486;28;20044;-72
2023/03/14 12:21:24;;;;;;;7.68;1.50;;;16.90;79.00;;;;;;5036147;28;20033;-73
2023/03/14 12:23:52;;;;;;;5.97;1.42;;;16.90;79.80;;;;;;5036028;28;20025;-73
2023/03/14 12:26:19;;;;;;;9.15;1.15;;;16.80;79.80;;;;;;5035359;28;20087;-73
2023/03/14 12:28:57;;;;;;;4.00;1.35;;;16.50;80.70;;;;;;5023793;28;20493;-74
2023/03/14 12:31:31;;;;;;;6.10;1.08;;;16.40;78.70;;;;;;5035465;28;20413;-73
2023/03/14 12:34:24;;;;;;;7.40;1.60;;;16.30;79.80;;;;;;5035378;28;20037;-72
2023/03/14 12:37:25;;;;;;;10.07;2.25;;;16.10;79.80;;;;;;5034593;28;20049;-72
2023/03/14 12:40:14;;;;;;;8.70;1.75;;;15.70;80.30;;;;;;5035848;28;20033;-72
2023/03/14 12:43:00;;;;;;;8.32;2.15;;;15.60;82.90;;;;;;5035517;28;20036;-73
2023/03/14 12:45:33;;;;;;;7.35;1.90;;;16.10;82.10;;;;;;5035418;28;20049;-73
2023/03/14 12:48:18;;;;;;;5.50;1.30;;;16.50;80.00;;;;;;5035703;28;20393;-73
2023/03/14 12:50:46;;;;;;;8.23;2.05;;;16.70;79.30;;;;;;5035290;28;20025;-73